createdAt,value
2022-11-20T00:02:28.279Z,100023.16
2022-11-20T00:05:33.733Z,100018.00
2022-11-20T00:08:37.216Z,100021.59
2022-11-20T00:11:40.255Z,100014.19
2022-11-20T00:14:42.827Z,99999.00
2022-11-20T00:17:45.954Z,100000.84
2022-11-20T00:20:48.740Z,99984.06
2022-11-20T00:23:55.321Z,99979.72
2022-11-20T00:26:58.057Z,99974.91
2022-11-20T00:30:01.151Z,99976.03
2022-11-20T00:33:03.790Z,99978.66
2022-11-20T00:36:09.371Z,99978.25
2022-11-20T00:39:11.955Z,99970.75
2022-11-20T00:42:14.922Z,99978.50
2022-11-20T00:45:17.550Z,99962.81
2022-11-20T00:48:20.495Z,99952.72
2022-11-20T00:51:25.182Z,99936.16
2022-11-20T00:54:28.140Z,99938.53
2022-11-20T00:57:30.667Z,99946.81
2022-11-20T01:00:33.644Z,99941.16
2022-11-20T01:03:41.986Z,99927.00
2022-11-20T01:06:45.072Z,99915.97
2022-11-20T01:09:47.927Z,99927.06
2022-11-20T01:13:10.814Z,99935.31
2022-11-20T01:16:19.890Z,99940.03
2022-11-20T01:19:25.029Z,99949.75
2022-11-20T01:22:27.907Z,99958.19
2022-11-20T01:25:31.045Z,99966.00
2022-11-20T01:28:34.401Z,99955.97
2022-11-20T01:31:38.267Z,99948.44
2022-11-20T01:34:40.868Z,99925.78
2022-11-20T01:37:44.059Z,99910.25
2022-11-20T01:40:54.607Z,99910.78
2022-11-20T01:43:57.531Z,99908.87
2022-11-20T01:47:06.210Z,99920.19
2022-11-20T01:50:17.898Z,99935.75
2022-11-20T01:53:25.423Z,99915.53
2022-11-20T01:56:31.077Z,99899.25
2022-11-20T01:59:34.693Z,99891.16
2022-11-20T02:02:40.282Z,99866.50
2022-11-20T02:05:50.501Z,99871.03
2022-11-20T02:08:54.153Z,99847.66
2022-11-20T02:11:58.615Z,99851.41
2022-11-20T02:15:01.485Z,99843.91
2022-11-20T02:18:06.633Z,99853.59
2022-11-20T02:21:24.587Z,99865.66
2022-11-20T02:24:27.548Z,99887.06
2022-11-20T02:27:30.651Z,99877.88
2022-11-20T02:30:33.623Z,99871.47
2022-11-20T02:33:36.267Z,99863.81
2022-11-20T02:36:42.031Z,99871.87
2022-11-20T02:39:47.083Z,99875.84
2022-11-20T02:42:53.675Z,99890.16
2022-11-20T02:45:56.486Z,99887.69
2022-11-20T02:48:59.842Z,99882.84
2022-11-20T02:52:02.724Z,99856.00
2022-11-20T02:55:06.155Z,99876.22
2022-11-20T02:58:08.791Z,99872.66
2022-11-20T03:01:11.803Z,99877.94
2022-11-20T03:04:14.520Z,99884.81
2022-11-20T03:07:17.497Z,99887.59
2022-11-20T03:10:20.269Z,99881.38
2022-11-20T03:13:23.123Z,99912.25
2022-11-20T03:16:25.775Z,99908.28
2022-11-20T03:19:28.800Z,99922.00
2022-11-20T03:22:31.440Z,99918.75
2022-11-20T03:25:34.451Z,99913.69
2022-11-20T03:28:37.499Z,99912.00
2022-11-20T03:31:41.996Z,99909.69
2022-11-20T03:34:44.663Z,99921.16
2022-11-20T03:37:47.642Z,99902.09
2022-11-20T03:40:50.524Z,99882.94
2022-11-20T03:44:01.994Z,99898.97
2022-11-20T03:47:04.667Z,99892.72
2022-11-20T03:50:08.528Z,99886.91
2022-11-20T03:53:11.179Z,99897.00
2022-11-20T03:56:15.787Z,99891.28
2022-11-20T03:59:18.592Z,99905.19
2022-11-20T04:02:21.646Z,99906.97
2022-11-20T04:05:24.592Z,99905.22
2022-11-20T04:08:27.195Z,99902.63
2022-11-20T04:11:32.678Z,99892.06
2022-11-20T04:14:35.243Z,99888.31
2022-11-20T04:17:38.179Z,99883.03
2022-11-20T04:20:40.925Z,99861.84
2022-11-20T04:23:43.852Z,99853.81
2022-11-20T04:26:46.392Z,99860.81
2022-11-20T04:29:49.327Z,99861.16
2022-11-20T04:32:52.906Z,99870.94
2022-11-20T04:35:55.931Z,99892.75
2022-11-20T04:39:01.567Z,99892.91
2022-11-20T04:42:23.163Z,99894.72
2022-11-20T04:45:25.766Z,99870.56
2022-11-20T04:48:30.145Z,99889.41
2022-11-20T04:51:33.810Z,99895.63
2022-11-20T04:54:36.667Z,99885.59
2022-11-20T04:57:39.303Z,99880.53
2022-11-20T05:00:42.300Z,99870.03
2022-11-20T05:03:45.506Z,99854.25
2022-11-20T05:06:48.443Z,99838.69
2022-11-20T05:09:50.991Z,99833.22
2022-11-20T05:12:54.332Z,99818.13
2022-11-20T05:15:57.090Z,99819.50
2022-11-20T05:19:00.111Z,99827.97
2022-11-20T05:22:02.735Z,99825.87
2022-11-20T05:25:06.067Z,99835.75
2022-11-20T05:28:08.894Z,99822.56
2022-11-20T05:31:21.974Z,99807.09
2022-11-20T05:34:27.840Z,99810.59
2022-11-20T05:37:30.728Z,99833.91
2022-11-20T05:40:33.451Z,99843.84
2022-11-20T05:43:38.193Z,99839.16
2022-11-20T05:46:40.781Z,99841.13
2022-11-20T05:49:43.771Z,99838.22
2022-11-20T05:52:46.388Z,99846.28
2022-11-20T05:56:00.691Z,99842.47
2022-11-20T05:59:03.332Z,99832.44
2022-11-20T06:02:06.264Z,99853.31
2022-11-20T06:05:09.503Z,99875.50
2022-11-20T06:08:12.127Z,99886.19
2022-11-20T06:11:16.132Z,99902.31
2022-11-20T06:14:18.828Z,99899.31
2022-11-20T06:17:21.762Z,99906.03
2022-11-20T06:20:24.355Z,99911.41
2022-11-20T06:23:29.451Z,99907.38
2022-11-20T06:26:32.240Z,99898.75
2022-11-20T06:29:35.879Z,99883.06
2022-11-20T06:32:38.473Z,99885.00
2022-11-20T06:35:41.399Z,99899.28
2022-11-20T06:38:44.435Z,99881.78
2022-11-20T06:41:47.527Z,99869.38
2022-11-20T06:44:50.167Z,99884.25
2022-11-20T06:47:53.428Z,99894.19
2022-11-20T06:50:57.503Z,99888.78
2022-11-20T06:54:02.008Z,99891.66
2022-11-20T06:57:04.677Z,99908.03
2022-11-20T07:00:08.267Z,99909.84
2022-11-20T07:03:12.907Z,99906.00
2022-11-20T07:06:15.920Z,99918.03
2022-11-20T07:09:18.888Z,99914.94
2022-11-20T07:12:21.842Z,99917.78
2022-11-20T07:15:26.011Z,99933.56
2022-11-20T07:18:29.168Z,99948.22
2022-11-20T07:21:31.960Z,99956.06
2022-11-20T07:24:34.946Z,99961.47
2022-11-20T07:27:37.697Z,99962.13
2022-11-20T07:30:40.714Z,99957.38
2022-11-20T07:33:43.514Z,99940.75
2022-11-20T07:36:46.436Z,99933.37
2022-11-20T07:39:49.123Z,99942.16
2022-11-20T07:42:54.208Z,99944.59
2022-11-20T07:45:58.270Z,99959.41
2022-11-20T07:49:01.318Z,99964.78
2022-11-20T07:52:05.369Z,99955.31
2022-11-20T07:55:09.439Z,99964.97
2022-11-20T07:58:12.066Z,99981.31
2022-11-20T08:01:14.975Z,99974.53
2022-11-20T08:04:17.942Z,99968.50
2022-11-20T08:07:20.640Z,99958.47
2022-11-20T08:10:23.673Z,99960.19
2022-11-20T08:13:44.698Z,99970.59
2022-11-20T08:16:49.499Z,99976.50
2022-11-20T08:19:52.184Z,99995.91
2022-11-20T08:23:00.858Z,99996.56
2022-11-20T08:26:03.489Z,99992.50
2022-11-20T08:29:06.886Z,99982.16
2022-11-20T08:32:09.423Z,99968.94
2022-11-20T08:35:12.320Z,99943.47
2022-11-20T08:38:15.003Z,99956.25
2022-11-20T08:41:32.730Z,99955.97
2022-11-20T08:44:35.327Z,99961.16
2022-11-20T08:47:38.225Z,99952.06
2022-11-20T08:50:40.768Z,99952.78
2022-11-20T08:53:43.755Z,99965.22
2022-11-20T08:56:46.471Z,99966.62
2022-11-20T09:00:06.394Z,99985.84
2022-11-20T09:03:09.694Z,99999.88
2022-11-20T09:06:12.996Z,100026.06
2022-11-20T09:09:15.612Z,100047.75
2022-11-20T09:12:18.578Z,100076.59
2022-11-20T09:15:21.189Z,100068.97
2022-11-20T09:18:24.961Z,100051.16
2022-11-20T09:21:27.911Z,100054.72
2022-11-20T09:24:31.078Z,100061.03
2022-11-20T09:27:33.708Z,100050.16
2022-11-20T09:30:37.184Z,100047.91
2022-11-20T09:33:39.774Z,100047.56
2022-11-20T09:36:42.667Z,100055.28
2022-11-20T09:39:45.283Z,100056.28
2022-11-20T09:43:09.979Z,100056.00
2022-11-20T09:46:27.737Z,100061.22
2022-11-20T09:50:03.398Z,100063.87
2022-11-20T09:53:12.194Z,100061.34
2022-11-20T09:56:18.293Z,100053.09
2022-11-20T09:59:42.365Z,100041.47
2022-11-20T10:02:52.794Z,100037.16
2022-11-20T10:05:56.544Z,100042.88
2022-11-20T10:09:23.232Z,100044.44
2022-11-20T10:12:46.451Z,100030.03
2022-11-20T10:15:56.679Z,100020.00
2022-11-20T10:19:08.346Z,100006.63
2022-11-20T10:22:43.989Z,100009.34
2022-11-20T10:25:57.435Z,100003.19
2022-11-20T10:29:12.422Z,100019.19
2022-11-20T10:32:18.506Z,100022.66
2022-11-20T10:35:32.524Z,100042.34
2022-11-20T10:38:45.754Z,100035.31
2022-11-20T10:41:52.187Z,100032.94
2022-11-20T10:45:10.866Z,100022.47
2022-11-20T10:48:21.912Z,100014.19
2022-11-20T10:51:42.934Z,100013.63
2022-11-20T10:55:02.611Z,100020.78
2022-11-20T10:58:27.544Z,100039.12
2022-11-20T11:01:30.354Z,100047.41
2022-11-20T11:04:46.547Z,100052.53
2022-11-20T11:07:52.104Z,100041.78
2022-11-20T11:11:19.331Z,100044.47
2022-11-20T11:14:22.002Z,100032.91
2022-11-20T11:17:28.358Z,100023.69
2022-11-20T11:20:51.304Z,100019.84
2022-11-20T11:24:19.667Z,100016.50
2022-11-20T11:27:25.078Z,100011.72
2022-11-20T11:30:31.103Z,100017.19
2022-11-20T11:33:37.032Z,100019.91
2022-11-20T11:36:40.397Z,100020.56
2022-11-20T11:39:44.289Z,100019.63
2022-11-20T11:43:01.050Z,100024.28
2022-11-20T11:46:15.295Z,100027.97
2022-11-20T11:49:20.047Z,100034.69
2022-11-20T11:52:25.371Z,100040.16
2022-11-20T11:55:37.861Z,100041.59
2022-11-20T11:58:52.871Z,100040.91
2022-11-20T12:02:00.599Z,100049.84
2022-11-20T12:05:26.521Z,100047.75
2022-11-20T12:08:43.217Z,100043.41
2022-11-20T12:12:00.420Z,100042.59
2022-11-20T12:15:04.468Z,100035.06
2022-11-20T12:18:19.339Z,100039.19
2022-11-20T12:21:36.790Z,100033.94
2022-11-20T12:25:03.241Z,100032.44
2022-11-20T12:28:31.123Z,100021.47
2022-11-20T12:32:03.430Z,100018.72
2022-11-20T12:35:11.124Z,100022.06
2022-11-20T12:38:57.562Z,100021.88
2022-11-20T12:42:45.167Z,100022.63
2022-11-20T12:46:00.899Z,100020.97
2022-11-20T12:49:28.288Z,100026.41
2022-11-20T12:52:43.739Z,100021.72
2022-11-20T12:56:14.396Z,100022.72
2022-11-20T12:59:36.216Z,100017.53
2022-11-20T13:02:57.000Z,100004.97
2022-11-20T13:06:12.267Z,100009.59
2022-11-20T13:09:18.103Z,100004.16
2022-11-20T13:12:28.527Z,100012.41
2022-11-20T13:15:46.813Z,100002.87
2022-11-20T13:18:50.055Z,100011.69
2022-11-20T13:21:52.673Z,100033.41
2022-11-20T13:24:55.996Z,100032.25
2022-11-20T13:28:06.053Z,100028.50
2022-11-20T13:31:31.663Z,100041.66
2022-11-20T13:34:35.370Z,100037.37
2022-11-20T13:37:39.301Z,100038.06
2022-11-20T13:41:00.412Z,100048.00
2022-11-20T13:44:09.010Z,100062.47
2022-11-20T13:47:25.681Z,100048.41
2022-11-20T13:50:37.907Z,100036.81
2022-11-20T13:54:05.110Z,100039.28
2022-11-20T13:57:11.164Z,100046.66
2022-11-20T14:00:20.515Z,100060.19
2022-11-20T14:03:51.271Z,100065.97
2022-11-20T14:06:49.851Z,100065.38
2022-11-20T14:09:55.600Z,100063.25
2022-11-20T14:12:58.649Z,100068.78
2022-11-20T14:16:01.702Z,100064.41
2022-11-20T14:19:34.094Z,100059.06
2022-11-20T14:22:37.183Z,100073.72
2022-11-20T14:25:43.894Z,100080.38
2022-11-20T14:28:51.421Z,100067.41
2022-11-20T14:31:56.852Z,100059.12
2022-11-20T14:35:08.556Z,100059.94
2022-11-20T14:38:15.171Z,100050.00
2022-11-20T14:41:23.754Z,100060.03
2022-11-20T14:44:33.339Z,100061.16
2022-11-20T14:47:36.591Z,100048.31
2022-11-20T14:50:39.708Z,100040.69
2022-11-20T14:53:42.756Z,100040.50
2022-11-20T14:56:59.129Z,100029.97
2022-11-20T15:00:19.978Z,100007.84
2022-11-20T15:03:26.629Z,100001.78
2022-11-20T15:06:33.865Z,100012.81
2022-11-20T15:09:36.732Z,100022.16
2022-11-20T15:12:47.722Z,100022.94
2022-11-20T15:15:53.232Z,100033.94
2022-11-20T15:18:56.522Z,100028.44
2022-11-20T15:21:59.350Z,100020.84
2022-11-20T15:25:02.603Z,100027.72
2022-11-20T15:28:12.272Z,100028.91
2022-11-20T15:31:18.279Z,100031.38
2022-11-20T15:34:21.120Z,100031.19
2022-11-20T15:37:29.779Z,100036.22
2022-11-20T15:40:33.850Z,100036.97
2022-11-20T15:43:37.117Z,100043.25
2022-11-20T15:46:45.543Z,100041.53
2022-11-20T15:49:48.820Z,100047.84
2022-11-20T15:52:51.859Z,100054.97
2022-11-20T15:55:55.202Z,100054.56
2022-11-20T15:58:58.082Z,100048.97
2022-11-20T16:02:01.279Z,100024.53
2022-11-20T16:05:05.021Z,100027.91
2022-11-20T16:08:11.513Z,100020.97
2022-11-20T16:11:17.284Z,100022.16
2022-11-20T16:14:38.469Z,100003.56
2022-11-20T16:17:44.244Z,99999.06
2022-11-20T16:20:50.479Z,100007.19
2022-11-20T16:23:54.447Z,99991.09
2022-11-20T16:26:57.804Z,99995.75
2022-11-20T16:30:00.962Z,100009.22
2022-11-20T16:33:04.526Z,100010.56
2022-11-20T16:36:16.813Z,100000.63
2022-11-20T16:39:23.686Z,99996.50
2022-11-20T16:42:27.557Z,99992.66
2022-11-20T16:45:33.946Z,99987.81
2022-11-20T16:48:37.343Z,99985.75
2022-11-20T16:51:40.584Z,100001.78
2022-11-20T16:54:43.552Z,100017.38
2022-11-20T16:57:46.096Z,100032.94
2022-11-20T17:00:51.893Z,100029.53
2022-11-20T17:04:06.159Z,100038.53
2022-11-20T17:07:09.363Z,100038.75
2022-11-20T17:10:12.387Z,100035.75
2022-11-20T17:13:15.476Z,100025.28
2022-11-20T17:16:21.209Z,100032.31
2022-11-20T17:19:24.373Z,100039.25
2022-11-20T17:22:27.844Z,100030.47
2022-11-20T17:25:34.562Z,100026.66
2022-11-20T17:28:38.645Z,100032.53
2022-11-20T17:31:42.585Z,100030.97
2022-11-20T17:34:45.503Z,100030.19
2022-11-20T17:37:48.384Z,100032.09
2022-11-20T17:40:51.450Z,100021.28
2022-11-20T17:43:56.455Z,100028.41
2022-11-20T17:46:59.387Z,100025.47
2022-11-20T17:50:03.537Z,100012.19
2022-11-20T17:53:07.652Z,100018.88
2022-11-20T17:56:30.503Z,100024.47
2022-11-20T17:59:33.478Z,100029.53
2022-11-20T18:02:36.621Z,100024.81
2022-11-20T18:05:39.855Z,100023.22
2022-11-20T18:08:43.692Z,100032.72
2022-11-20T18:11:46.905Z,100037.72
2022-11-20T18:14:49.811Z,100018.81
2022-11-20T18:17:54.740Z,100034.22
2022-11-20T18:20:57.621Z,100031.50
2022-11-20T18:24:00.894Z,100029.44
2022-11-20T18:27:04.956Z,100019.69
2022-11-20T18:30:08.902Z,100018.09
2022-11-20T18:33:15.233Z,100011.00
2022-11-20T18:36:20.728Z,100017.78
2022-11-20T18:39:24.255Z,100012.34
2022-11-20T18:42:45.821Z,100002.09
2022-11-20T18:45:49.021Z,100016.22
2022-11-20T18:48:52.278Z,100011.00
2022-11-20T18:51:55.435Z,100021.75
2022-11-20T18:54:58.670Z,100020.88
2022-11-20T18:58:01.607Z,100015.44
2022-11-20T19:01:08.431Z,100013.25
2022-11-20T19:04:13.564Z,100021.75
2022-11-20T19:07:17.201Z,100024.81
2022-11-20T19:10:20.757Z,100026.63
2022-11-20T19:13:24.194Z,100023.59
2022-11-20T19:16:27.164Z,100026.19
2022-11-20T19:19:30.542Z,100027.41
2022-11-20T19:22:33.467Z,100041.47
2022-11-20T19:25:38.266Z,100034.13
2022-11-20T19:28:42.434Z,100030.63
2022-11-20T19:31:45.827Z,100030.37
2022-11-20T19:34:48.880Z,100024.25
2022-11-20T19:37:52.175Z,100012.50
2022-11-20T19:40:55.140Z,100017.28
2022-11-20T19:44:10.295Z,100027.34
2022-11-20T19:47:14.679Z,100028.34
2022-11-20T19:50:19.480Z,100029.25
2022-11-20T19:53:23.457Z,100020.56
2022-11-20T19:56:28.315Z,100023.37
2022-11-20T19:59:31.283Z,100011.06
2022-11-20T20:02:34.590Z,100019.38
2022-11-20T20:05:37.782Z,100012.50
2022-11-20T20:08:42.836Z,100014.56
2022-11-20T20:11:47.132Z,100024.03
2022-11-20T20:14:49.938Z,100012.28
2022-11-20T20:17:53.733Z,100013.53
2022-11-20T20:20:59.681Z,100015.12
2022-11-20T20:24:06.199Z,100013.84
2022-11-20T20:27:08.912Z,100001.22
2022-11-20T20:30:12.389Z,99991.41
2022-11-20T20:33:15.032Z,100010.31
2022-11-20T20:36:19.927Z,100016.22
2022-11-20T20:39:24.441Z,100025.38
2022-11-20T20:42:30.782Z,100018.22
2022-11-20T20:45:33.667Z,100012.09
2022-11-20T20:48:37.272Z,100023.22
2022-11-20T20:51:40.217Z,100019.38
2022-11-20T20:54:44.723Z,100011.28
2022-11-20T20:57:47.889Z,100013.47
2022-11-20T21:00:52.047Z,100023.69
2022-11-20T21:03:56.014Z,100010.13
2022-11-20T21:06:59.207Z,100005.50
2022-11-20T21:10:01.971Z,99997.22
2022-11-20T21:13:04.998Z,99985.81
2022-11-20T21:16:09.404Z,99974.56
2022-11-20T21:19:12.842Z,99982.75
2022-11-20T21:22:15.436Z,99967.12
2022-11-20T21:25:18.266Z,99962.19
2022-11-20T21:28:21.078Z,99949.34
2022-11-20T21:31:26.567Z,99951.91
2022-11-20T21:34:29.368Z,99949.75
2022-11-20T21:37:34.112Z,99945.28
2022-11-20T21:40:39.809Z,99945.50
2022-11-20T21:43:44.290Z,99948.03
2022-11-20T21:46:47.186Z,99937.44
2022-11-20T21:49:50.132Z,99939.41
2022-11-20T21:52:53.050Z,99939.22
2022-11-20T21:55:57.496Z,99936.50
2022-11-20T21:59:00.666Z,99939.41
2022-11-20T22:02:03.640Z,99936.75
2022-11-20T22:05:07.822Z,99913.75
2022-11-20T22:08:10.487Z,99913.69
2022-11-20T22:11:18.330Z,99910.31
2022-11-20T22:14:21.166Z,99916.66
2022-11-20T22:17:44.307Z,99917.44
2022-11-20T22:20:46.847Z,99926.16
2022-11-20T22:23:50.555Z,99920.97
2022-11-20T22:26:53.203Z,99906.28
2022-11-20T22:29:56.144Z,99907.19
2022-11-20T22:32:58.680Z,99893.16
2022-11-20T22:36:08.531Z,99894.50
2022-11-20T22:39:11.212Z,99891.16
2022-11-20T22:42:14.107Z,99894.00
2022-11-20T22:45:17.086Z,99875.25
2022-11-20T22:48:20.176Z,99872.44
2022-11-20T22:51:24.830Z,99876.44
2022-11-20T22:54:27.755Z,99880.94
2022-11-20T22:57:31.579Z,99884.00
2022-11-20T23:00:34.599Z,99881.84
2022-11-20T23:03:38.370Z,99887.91
2022-11-20T23:06:41.331Z,99863.78
2022-11-20T23:09:43.863Z,99862.69
2022-11-20T23:12:46.800Z,99874.28
2022-11-20T23:15:49.371Z,99863.22
2022-11-20T23:18:57.276Z,99851.28
2022-11-20T23:21:59.811Z,99863.47
2022-11-20T23:25:02.764Z,99853.38
2022-11-20T23:28:05.484Z,99845.34
2022-11-20T23:31:10.542Z,99845.50
2022-11-20T23:34:13.146Z,99847.44
2022-11-20T23:37:16.065Z,99854.09
2022-11-20T23:40:18.947Z,99838.28
2022-11-20T23:43:22.711Z,99846.88
2022-11-20T23:46:25.504Z,99839.50
2022-11-20T23:49:28.555Z,99844.16
2022-11-20T23:52:31.367Z,99830.12
2022-11-20T23:55:34.845Z,99827.22
2022-11-20T23:58:38.737Z,99830.97
